createdAt,value
2019-03-13T00:01:40.082Z,1.90
2019-03-13T00:04:10.801Z,1.90
2019-03-13T00:06:41.496Z,2.10
2019-03-13T00:09:13.257Z,1.57
2019-03-13T00:11:43.844Z,0.80
2019-03-13T00:14:14.836Z,0.80
2019-03-13T00:16:45.515Z,0.95
2019-03-13T00:19:16.150Z,0.62
2019-03-13T00:21:46.735Z,0.60
2019-03-13T00:24:17.425Z,0.70
2019-03-13T00:26:48.026Z,0.80
2019-03-13T00:29:18.672Z,0.90
2019-03-13T00:31:49.314Z,0.85
2019-03-13T00:34:19.914Z,1.02
2019-03-13T00:36:50.523Z,0.90
2019-03-13T00:39:21.122Z,1.10
2019-03-13T00:41:51.749Z,1.10
2019-03-13T00:44:22.380Z,1.20
2019-03-13T00:46:53.063Z,1.25
2019-03-13T00:49:23.733Z,1.20
2019-03-13T00:51:54.338Z,1.40
2019-03-13T00:54:25.017Z,1.00
2019-03-13T00:56:55.594Z,1.00
2019-03-13T00:59:26.226Z,1.00
2019-03-13T01:02:24.683Z,1.20
2019-03-13T01:05:01.420Z,1.00
2019-03-13T01:07:32.017Z,0.90
2019-03-13T01:10:02.638Z,1.20
2019-03-13T01:12:33.249Z,1.42
2019-03-13T01:15:04.088Z,1.47
2019-03-13T01:17:34.731Z,1.25
2019-03-13T01:20:05.813Z,1.90
2019-03-13T01:22:36.452Z,1.60
2019-03-13T01:25:07.708Z,2.00
2019-03-13T01:27:38.415Z,1.22
2019-03-13T01:30:10.254Z,2.10
2019-03-13T01:32:52.324Z,1.98
2019-03-13T01:35:42.113Z,2.80
2019-03-13T01:38:12.824Z,3.00
2019-03-13T01:40:43.425Z,2.98
2019-03-13T01:43:14.107Z,3.35
2019-03-13T01:45:44.706Z,3.50
2019-03-13T01:48:15.331Z,3.85
2019-03-13T01:50:46.079Z,3.83
2019-03-13T01:53:16.764Z,4.17
2019-03-13T01:55:47.429Z,3.98
2019-03-13T01:58:18.099Z,4.08
2019-03-13T02:00:48.723Z,3.42
2019-03-13T02:03:19.379Z,3.80
2019-03-13T02:05:50.040Z,3.40
2019-03-13T02:08:20.717Z,3.80
2019-03-13T02:10:51.390Z,2.80
2019-03-13T02:13:22.103Z,3.00
2019-03-13T02:15:53.136Z,3.60
2019-03-13T02:18:23.883Z,3.12
2019-03-13T02:20:54.576Z,3.27
2019-03-13T02:23:25.238Z,3.20
2019-03-13T02:25:56.067Z,3.52
2019-03-13T02:28:26.783Z,2.83
2019-03-13T02:30:57.442Z,3.35
2019-03-13T02:33:28.135Z,2.80
2019-03-13T02:35:58.855Z,3.22
2019-03-13T02:38:29.471Z,3.27
2019-03-13T02:41:00.126Z,3.33
2019-03-13T02:43:30.810Z,3.10
2019-03-13T02:46:01.481Z,2.70
2019-03-13T02:48:32.214Z,3.10
2019-03-13T02:51:02.877Z,2.35
2019-03-13T02:53:33.528Z,3.30
2019-03-13T02:56:04.195Z,2.70
2019-03-13T02:58:34.917Z,3.23
2019-03-13T03:01:22.161Z,2.95
2019-03-13T03:03:54.654Z,3.25
2019-03-13T03:06:25.432Z,3.08
2019-03-13T03:08:56.145Z,2.70
2019-03-13T03:11:26.855Z,2.80
2019-03-13T03:13:57.637Z,2.75
2019-03-13T03:16:28.388Z,3.37
2019-03-13T03:18:59.177Z,2.77
2019-03-13T03:21:29.936Z,3.00
2019-03-13T03:24:00.626Z,2.85
2019-03-13T03:26:31.338Z,3.33
2019-03-13T03:29:02.127Z,2.90
2019-03-13T03:31:32.898Z,3.15
2019-03-13T03:34:04.971Z,2.50
2019-03-13T03:36:35.779Z,3.27
2019-03-13T03:39:25.731Z,3.08
2019-03-13T03:41:56.488Z,2.92
2019-03-13T03:44:27.202Z,2.90
2019-03-13T03:46:57.893Z,2.90
2019-03-13T03:49:28.626Z,2.75
2019-03-13T03:51:59.388Z,3.45
2019-03-13T03:54:30.405Z,3.05
2019-03-13T03:57:01.197Z,2.80
2019-03-13T03:59:31.930Z,3.20
2019-03-13T04:02:02.837Z,3.37
2019-03-13T04:04:33.617Z,3.80
2019-03-13T04:07:04.345Z,3.30
2019-03-13T04:09:35.464Z,3.42
2019-03-13T04:12:06.191Z,3.83
2019-03-13T04:14:36.938Z,3.62
2019-03-13T04:17:07.699Z,3.75
2019-03-13T04:19:38.474Z,3.90
2019-03-13T04:22:09.211Z,3.92
2019-03-13T04:24:39.864Z,4.30
2019-03-13T04:27:10.553Z,3.50
2019-03-13T04:29:41.256Z,3.70
2019-03-13T04:32:12.079Z,3.45
2019-03-13T04:34:42.728Z,3.62
2019-03-13T04:37:13.519Z,4.30
2019-03-13T04:39:44.234Z,3.70
2019-03-13T04:42:14.967Z,4.20
2019-03-13T04:44:45.688Z,3.83
2019-03-13T04:47:16.543Z,3.80
2019-03-13T04:49:47.275Z,3.70
2019-03-13T04:52:17.981Z,3.58
2019-03-13T04:54:48.700Z,4.00
2019-03-13T04:57:19.472Z,3.50
2019-03-13T04:59:50.287Z,4.20
2019-03-13T05:02:20.827Z,3.80
2019-03-13T05:04:51.405Z,3.90
2019-03-13T05:07:21.936Z,3.85
2019-03-13T05:09:52.517Z,3.77
2019-03-13T05:12:23.004Z,3.95
2019-03-13T05:14:53.575Z,4.03
2019-03-13T05:17:24.100Z,4.42
2019-03-13T05:19:54.660Z,4.35
2019-03-13T05:22:27.898Z,4.08
2019-03-13T05:24:58.473Z,4.00
2019-03-13T05:27:29.048Z,4.40
2019-03-13T05:29:59.620Z,4.80
2019-03-13T05:32:30.223Z,4.07
2019-03-13T05:35:00.773Z,4.22
2019-03-13T05:37:31.252Z,4.00
2019-03-13T05:40:01.845Z,4.22
2019-03-13T05:42:32.356Z,4.50
2019-03-13T05:45:02.955Z,4.12
2019-03-13T05:47:33.518Z,4.37
2019-03-13T05:50:04.117Z,4.47
2019-03-13T05:52:34.737Z,4.62
2019-03-13T05:55:05.322Z,4.67
2019-03-13T05:57:35.897Z,4.87
2019-03-13T06:00:06.702Z,4.90
2019-03-13T06:02:37.199Z,4.67
2019-03-13T06:05:07.713Z,5.20
2019-03-13T06:07:38.175Z,5.03
2019-03-13T06:10:08.668Z,5.17
2019-03-13T06:12:39.138Z,5.40
2019-03-13T06:15:09.931Z,5.80
2019-03-13T06:17:40.411Z,5.20
2019-03-13T06:20:11.363Z,4.80
2019-03-13T06:22:41.889Z,5.62
2019-03-13T06:25:12.501Z,5.83
2019-03-13T06:27:46.070Z,5.60
2019-03-13T06:30:15.424Z,5.80
2019-03-13T06:32:45.894Z,5.62
2019-03-13T06:35:16.463Z,6.20
2019-03-13T06:37:46.986Z,6.28
2019-03-13T06:40:17.524Z,5.87
2019-03-13T06:42:48.033Z,6.05
2019-03-13T06:45:18.709Z,5.70
2019-03-13T06:47:49.227Z,5.95
2019-03-13T06:50:20.156Z,5.33
2019-03-13T06:52:50.629Z,5.33
2019-03-13T06:55:21.088Z,5.50
2019-03-13T06:57:51.602Z,5.20
2019-03-13T07:00:50.690Z,5.72
2019-03-13T07:03:42.912Z,5.42
2019-03-13T07:06:31.359Z,5.00
2019-03-13T07:09:26.950Z,4.90
2019-03-13T07:12:16.028Z,4.62
2019-03-13T07:15:08.477Z,4.85
2019-03-13T07:17:57.943Z,4.92
2019-03-13T07:20:45.801Z,4.15
2019-03-13T07:23:35.735Z,4.20
2019-03-13T07:26:14.600Z,4.40
2019-03-13T07:29:12.016Z,5.17
2019-03-13T07:31:54.673Z,4.60
2019-03-13T07:34:44.156Z,4.40
2019-03-13T07:37:36.560Z,4.20
2019-03-13T07:40:15.484Z,4.55
2019-03-13T07:43:01.960Z,4.30
2019-03-13T07:45:50.075Z,4.33
2019-03-13T07:48:27.736Z,3.85
2019-03-13T07:51:23.515Z,4.22
2019-03-13T07:54:01.528Z,3.83
2019-03-13T07:56:50.786Z,4.10
2019-03-13T07:59:55.657Z,3.80
2019-03-13T08:02:43.976Z,4.60
2019-03-13T08:05:19.000Z,4.15
2019-03-13T08:07:58.430Z,3.72
2019-03-13T08:10:53.645Z,3.80
2019-03-13T08:13:38.105Z,4.17
2019-03-13T08:16:33.856Z,3.40
2019-03-13T08:19:29.488Z,4.37
2019-03-13T08:22:17.872Z,3.58
2019-03-13T08:25:01.374Z,3.92
2019-03-13T08:27:43.520Z,3.52
2019-03-13T08:30:37.884Z,3.67
2019-03-13T08:33:36.491Z,3.80
2019-03-13T08:36:19.916Z,3.63
2019-03-13T08:39:08.352Z,3.40
2019-03-13T08:42:09.945Z,3.65
2019-03-13T08:44:46.872Z,4.40
2019-03-13T08:47:54.635Z,3.87
2019-03-13T08:50:46.198Z,4.00
2019-03-13T08:53:21.874Z,3.80
2019-03-13T08:56:17.404Z,3.62
2019-03-13T08:59:05.428Z,3.60
2019-03-13T09:01:53.835Z,3.65
2019-03-13T09:04:52.429Z,3.70
2019-03-13T09:07:40.466Z,3.70
2019-03-13T09:10:30.587Z,3.10
2019-03-13T09:13:12.679Z,3.70
2019-03-13T09:15:49.498Z,4.00
2019-03-13T09:18:38.857Z,3.80
2019-03-13T09:21:20.756Z,3.30
2019-03-13T09:24:02.514Z,3.03
2019-03-13T09:27:10.408Z,3.67
2019-03-13T09:30:02.630Z,3.20
2019-03-13T09:32:50.964Z,3.62
2019-03-13T09:35:43.203Z,3.55
2019-03-13T09:38:31.653Z,3.60
2019-03-13T09:41:21.050Z,3.02
2019-03-13T09:44:09.449Z,3.90
2019-03-13T09:46:58.861Z,3.50
2019-03-13T09:49:51.718Z,3.95
2019-03-13T09:52:33.917Z,3.50
2019-03-13T09:55:26.499Z,3.05
2019-03-13T09:58:15.095Z,3.00
2019-03-13T10:01:10.710Z,3.40
2019-03-13T10:04:09.389Z,3.30
2019-03-13T10:07:17.015Z,2.70
2019-03-13T10:09:58.919Z,3.50
2019-03-13T10:12:57.203Z,3.22
2019-03-13T10:15:43.290Z,3.02
2019-03-13T10:18:31.436Z,2.67
2019-03-13T10:21:22.839Z,3.45
2019-03-13T10:23:59.656Z,3.22
2019-03-13T10:26:52.871Z,3.50
2019-03-13T10:29:28.359Z,3.10
2019-03-13T10:32:16.976Z,3.30
2019-03-13T10:34:53.858Z,2.70
2019-03-13T10:37:46.259Z,3.00
2019-03-13T10:40:41.556Z,3.47
2019-03-13T10:43:46.387Z,3.20
2019-03-13T10:46:47.969Z,3.22
2019-03-13T10:49:40.564Z,2.77
2019-03-13T10:52:16.035Z,3.27
2019-03-13T10:55:00.484Z,3.45
2019-03-13T10:57:49.854Z,3.77
2019-03-13T11:00:42.141Z,3.30
2019-03-13T11:03:27.956Z,3.55
2019-03-13T11:06:16.106Z,3.30
2019-03-13T11:09:11.575Z,3.53
2019-03-13T11:12:00.892Z,3.52
2019-03-13T11:14:51.596Z,3.77
2019-03-13T11:17:40.059Z,3.45
2019-03-13T11:20:24.294Z,3.80
2019-03-13T11:23:05.331Z,3.27
2019-03-13T11:25:51.355Z,3.70
2019-03-13T11:28:56.297Z,3.20
2019-03-13T11:31:44.837Z,3.50
2019-03-13T11:34:26.687Z,3.10
2019-03-13T11:37:19.324Z,3.45
2019-03-13T11:40:07.549Z,3.30
2019-03-13T11:42:53.826Z,3.33
2019-03-13T11:45:32.517Z,2.83
2019-03-13T11:48:20.873Z,2.97
2019-03-13T11:51:05.291Z,3.40
2019-03-13T11:53:58.043Z,2.83
2019-03-13T11:56:47.299Z,2.83
2019-03-13T11:59:45.755Z,3.80
2019-03-13T12:02:37.957Z,4.23
2019-03-13T12:05:19.799Z,3.95
2019-03-13T12:08:15.071Z,4.33
2019-03-13T12:11:01.470Z,4.30
2019-03-13T12:13:45.494Z,3.40
2019-03-13T12:16:29.045Z,3.85
2019-03-13T12:19:12.544Z,3.73
2019-03-13T12:21:52.952Z,3.60
2019-03-13T12:24:51.238Z,4.42
2019-03-13T12:27:36.301Z,3.87
2019-03-13T12:30:33.748Z,3.20
2019-03-13T12:33:21.705Z,3.50
2019-03-13T12:36:11.159Z,3.35
2019-03-13T12:39:06.499Z,2.95
2019-03-13T12:41:49.144Z,3.73
2019-03-13T12:44:37.176Z,3.42
2019-03-13T12:47:21.022Z,2.80
2019-03-13T12:50:07.159Z,2.87
2019-03-13T12:52:56.545Z,2.62
2019-03-13T12:55:54.937Z,2.60
2019-03-13T12:58:43.105Z,2.72
2019-03-13T13:01:35.506Z,2.27
2019-03-13T13:04:13.565Z,2.30
2019-03-13T13:06:51.203Z,2.12
2019-03-13T13:09:50.575Z,2.35
2019-03-13T13:12:42.752Z,2.20
2019-03-13T13:15:50.542Z,2.12
2019-03-13T13:18:34.774Z,1.65
2019-03-13T13:21:05.283Z,1.60
2019-03-13T13:23:35.773Z,1.90
2019-03-13T13:26:06.603Z,1.80
2019-03-13T13:28:37.088Z,1.60
2019-03-13T13:31:07.632Z,1.98
2019-03-13T13:33:38.121Z,1.90
2019-03-13T13:36:09.216Z,1.92
2019-03-13T13:38:39.734Z,1.75
2019-03-13T13:41:10.245Z,1.77
2019-03-13T13:43:40.692Z,1.50
2019-03-13T13:46:32.261Z,2.33
2019-03-13T13:49:02.752Z,1.80
2019-03-13T13:51:33.274Z,1.70
2019-03-13T13:54:03.865Z,1.70
2019-03-13T13:56:34.396Z,1.72
2019-03-13T13:59:04.943Z,2.10
2019-03-13T14:01:35.442Z,2.05
2019-03-13T14:04:05.961Z,2.03
2019-03-13T14:06:36.446Z,2.17
2019-03-13T14:09:07.807Z,1.98
2019-03-13T14:11:38.285Z,2.50
2019-03-13T14:14:08.775Z,1.60
2019-03-13T14:16:39.301Z,2.00
2019-03-13T14:19:09.766Z,2.10
2019-03-13T14:21:40.244Z,2.10
2019-03-13T14:24:10.633Z,2.30
2019-03-13T14:26:41.116Z,1.85
2019-03-13T14:29:11.570Z,2.00
2019-03-13T14:31:42.123Z,2.22
2019-03-13T14:34:12.600Z,1.80
2019-03-13T14:36:43.122Z,2.10
2019-03-13T14:39:13.741Z,2.10
2019-03-13T14:41:44.208Z,2.08
2019-03-13T14:44:14.686Z,2.05
2019-03-13T14:46:45.214Z,2.12
2019-03-13T14:49:15.755Z,2.70
2019-03-13T14:51:46.314Z,1.90
2019-03-13T14:54:16.846Z,2.02
2019-03-13T14:56:47.381Z,2.23
2019-03-13T14:59:17.914Z,2.27
2019-03-13T15:01:48.535Z,2.37
2019-03-13T15:04:19.055Z,2.20
2019-03-13T15:06:49.541Z,2.55
2019-03-13T15:09:20.093Z,2.33
2019-03-13T15:11:50.600Z,3.23
2019-03-13T15:14:21.114Z,3.00
2019-03-13T15:16:53.292Z,2.90
2019-03-13T15:19:23.956Z,2.40
2019-03-13T15:21:54.438Z,2.67
2019-03-13T15:24:24.916Z,2.33
2019-03-13T15:26:55.340Z,2.87
2019-03-13T15:29:25.827Z,2.60
2019-03-13T15:31:56.394Z,2.02
2019-03-13T15:34:26.961Z,1.90
2019-03-13T15:36:57.524Z,1.60
2019-03-13T15:39:28.098Z,1.60
2019-03-13T15:41:58.695Z,2.00
2019-03-13T15:44:29.226Z,1.80
2019-03-13T15:46:59.737Z,2.30
2019-03-13T15:49:30.233Z,2.02
2019-03-13T15:52:00.779Z,2.40
2019-03-13T15:54:31.895Z,2.30
2019-03-13T15:57:02.413Z,2.30
2019-03-13T15:59:32.916Z,2.50
2019-03-13T16:02:03.482Z,3.10
2019-03-13T16:04:33.995Z,2.60
2019-03-13T16:07:04.513Z,3.37
2019-03-13T16:09:35.075Z,3.60
2019-03-13T16:12:05.593Z,3.40
2019-03-13T16:14:36.144Z,3.02
2019-03-13T16:17:06.734Z,3.25
2019-03-13T16:19:37.233Z,2.80
2019-03-13T16:22:08.874Z,3.10
2019-03-13T16:24:39.468Z,3.00
2019-03-13T16:27:10.023Z,3.15
2019-03-13T16:29:40.542Z,3.10
2019-03-13T16:32:12.751Z,3.55
2019-03-13T16:34:43.233Z,3.50
2019-03-13T16:37:13.731Z,3.40
2019-03-13T16:39:44.341Z,3.27
2019-03-13T16:42:14.861Z,3.05
2019-03-13T16:44:45.380Z,3.00
2019-03-13T16:47:15.942Z,3.37
2019-03-13T16:49:46.473Z,3.30
2019-03-13T16:52:16.921Z,2.95
2019-03-13T16:54:47.503Z,3.00
2019-03-13T16:57:18.076Z,2.58
2019-03-13T16:59:59.995Z,2.75
2019-03-13T17:02:21.080Z,2.67
2019-03-13T17:04:51.636Z,2.50
2019-03-13T17:07:22.110Z,2.33
2019-03-13T17:09:52.684Z,2.67
2019-03-13T17:12:23.180Z,2.25
2019-03-13T17:14:53.686Z,2.40
2019-03-13T17:17:24.230Z,2.30
2019-03-13T17:19:54.750Z,2.45
2019-03-13T17:22:25.281Z,2.40
2019-03-13T17:24:55.830Z,2.30
2019-03-13T17:27:26.266Z,2.58
2019-03-13T17:29:56.812Z,2.40
2019-03-13T17:32:27.351Z,2.27
2019-03-13T17:34:57.894Z,2.58
2019-03-13T17:37:28.370Z,2.22
2019-03-13T17:39:58.919Z,2.30
2019-03-13T17:42:29.485Z,2.10
2019-03-13T17:45:00.374Z,2.00
2019-03-13T17:47:31.204Z,1.85
2019-03-13T17:50:01.714Z,2.12
2019-03-13T17:52:32.148Z,2.10
2019-03-13T17:55:02.704Z,2.52
2019-03-13T17:57:34.199Z,2.15
2019-03-13T18:00:05.614Z,2.17
2019-03-13T18:02:36.177Z,2.10
2019-03-13T18:05:07.555Z,2.77
2019-03-13T18:07:38.141Z,2.30
2019-03-13T18:10:11.691Z,2.10
2019-03-13T18:12:42.222Z,2.30
2019-03-13T18:15:12.938Z,2.00
2019-03-13T18:17:43.616Z,1.90
2019-03-13T18:20:16.308Z,2.25
2019-03-13T18:22:46.941Z,2.22
2019-03-13T18:25:18.356Z,1.90
2019-03-13T18:27:49.902Z,1.90
2019-03-13T18:30:22.953Z,1.82
2019-03-13T18:32:53.572Z,1.90
2019-03-13T18:35:24.112Z,2.08
2019-03-13T18:37:54.712Z,2.00
2019-03-13T18:40:25.971Z,1.75
2019-03-13T18:42:56.543Z,1.82
2019-03-13T18:45:27.611Z,2.15
2019-03-13T18:47:58.276Z,2.33
2019-03-13T18:50:35.624Z,2.00
2019-03-13T18:53:07.319Z,1.60
2019-03-13T18:55:38.027Z,1.70
2019-03-13T18:58:08.606Z,1.60
2019-03-13T19:00:39.408Z,1.67
2019-03-13T19:03:10.639Z,1.70
2019-03-13T19:05:41.265Z,2.00
2019-03-13T19:08:11.859Z,2.10
2019-03-13T19:10:42.770Z,1.80
2019-03-13T19:13:13.345Z,2.45
2019-03-13T19:15:43.991Z,2.85
2019-03-13T19:18:14.629Z,2.33
2019-03-13T19:20:45.196Z,2.40
2019-03-13T19:23:16.122Z,3.00
2019-03-13T19:25:46.814Z,2.52
2019-03-13T19:28:17.502Z,2.60
2019-03-13T19:30:48.129Z,2.75
2019-03-13T19:33:20.157Z,2.95
2019-03-13T19:35:52.444Z,2.65
2019-03-13T19:38:25.652Z,2.67
2019-03-13T19:40:58.459Z,3.62
2019-03-13T19:43:29.188Z,3.90
2019-03-13T19:45:59.814Z,3.10
2019-03-13T19:48:30.443Z,4.28
2019-03-13T19:51:01.243Z,3.22
2019-03-13T19:53:33.090Z,2.87
2019-03-13T19:56:03.742Z,3.22
2019-03-13T19:58:34.734Z,2.85
2019-03-13T20:01:06.014Z,2.90
2019-03-13T20:03:36.843Z,2.70
2019-03-13T20:06:12.029Z,2.90
2019-03-13T20:08:44.544Z,3.22
2019-03-13T20:11:15.199Z,3.50
2019-03-13T20:13:45.921Z,3.08
2019-03-13T20:16:16.751Z,2.52
2019-03-13T20:18:49.848Z,2.80
2019-03-13T20:21:20.697Z,2.30
2019-03-13T20:23:51.366Z,2.33
2019-03-13T20:26:22.057Z,2.62
2019-03-13T20:28:52.728Z,2.67
2019-03-13T20:31:23.394Z,2.67
2019-03-13T20:33:54.034Z,2.42
2019-03-13T20:36:24.750Z,3.20
2019-03-13T20:38:55.482Z,3.00
2019-03-13T20:41:26.114Z,3.10
2019-03-13T20:43:56.682Z,2.85
2019-03-13T20:46:27.186Z,2.70
2019-03-13T20:48:57.837Z,4.30
2019-03-13T20:51:28.435Z,2.90
2019-03-13T20:53:58.925Z,2.30
2019-03-13T20:56:29.499Z,2.10
2019-03-13T20:59:00.309Z,3.05
2019-03-13T21:01:30.980Z,3.05
2019-03-13T21:04:01.632Z,3.05
2019-03-13T21:06:32.180Z,2.77
2019-03-13T21:09:02.817Z,3.50
2019-03-13T21:11:33.380Z,3.47
2019-03-13T21:14:03.831Z,4.15
2019-03-13T21:16:34.450Z,3.75
2019-03-13T21:19:05.153Z,4.10
2019-03-13T21:21:35.741Z,3.60
2019-03-13T21:24:06.250Z,3.83
2019-03-13T21:26:36.844Z,3.70
2019-03-13T21:29:07.396Z,3.20
2019-03-13T21:31:38.166Z,2.92
2019-03-13T21:34:09.720Z,3.80
2019-03-13T21:36:40.429Z,3.30
2019-03-13T21:39:12.016Z,3.37
2019-03-13T21:41:42.667Z,3.47
2019-03-13T21:44:13.179Z,3.62
2019-03-13T21:46:43.698Z,3.70
2019-03-13T21:49:14.268Z,3.98
2019-03-13T21:51:44.819Z,3.03
2019-03-13T21:54:15.375Z,2.72
2019-03-13T21:56:45.955Z,3.43
2019-03-13T21:59:16.591Z,4.00
2019-03-13T22:01:47.093Z,2.90
2019-03-13T22:04:24.094Z,2.62
2019-03-13T22:06:49.888Z,2.90
2019-03-13T22:09:20.414Z,2.10
2019-03-13T22:11:51.041Z,1.30
2019-03-13T22:14:21.534Z,1.40
2019-03-13T22:16:52.033Z,1.22
2019-03-13T22:19:22.671Z,1.10
2019-03-13T22:21:53.224Z,1.40
2019-03-13T22:24:23.816Z,1.92
2019-03-13T22:26:54.414Z,1.20
2019-03-13T22:29:25.084Z,1.90
2019-03-13T22:31:55.777Z,1.60
2019-03-13T22:34:26.384Z,2.83
2019-03-13T22:36:56.971Z,3.20
2019-03-13T22:39:27.515Z,3.02
2019-03-13T22:41:58.191Z,3.15
2019-03-13T22:44:28.788Z,3.87
2019-03-13T22:46:59.497Z,2.90
2019-03-13T22:49:30.159Z,3.00
2019-03-13T22:52:01.173Z,2.60
2019-03-13T22:54:32.478Z,3.10
2019-03-13T22:57:03.649Z,2.40
2019-03-13T22:59:35.320Z,2.58
2019-03-13T23:02:09.635Z,2.98
2019-03-13T23:04:40.431Z,3.15
2019-03-13T23:07:11.616Z,3.35
2019-03-13T23:09:42.297Z,3.98
2019-03-13T23:12:13.098Z,3.30
2019-03-13T23:14:43.631Z,3.77
2019-03-13T23:17:14.654Z,4.12
2019-03-13T23:19:45.436Z,4.40
2019-03-13T23:22:15.983Z,4.95
2019-03-13T23:24:46.744Z,3.75
2019-03-13T23:27:17.612Z,4.20
2019-03-13T23:29:48.861Z,3.98
2019-03-13T23:32:19.459Z,3.90
2019-03-13T23:34:50.343Z,5.17
2019-03-13T23:37:21.085Z,5.50
2019-03-13T23:39:52.060Z,4.22
2019-03-13T23:42:22.708Z,4.40
2019-03-13T23:44:54.875Z,4.55
2019-03-13T23:47:25.849Z,4.40
2019-03-13T23:49:56.483Z,3.80
2019-03-13T23:52:27.126Z,4.80
2019-03-13T23:54:58.023Z,3.70
2019-03-13T23:57:28.896Z,4.70
